Terminal Aerodrome Forecast
Issued by NWS

Home | Current Version | Previous Version | Text Only | Print | Product List | Glossary On
Versions: 1 2 3 4 5 6 7 8 9 10 11 12 13 14 15 16 17 18 19 20
000
FTUS43 KGRR 222042 AAB
TAFBTL
TAF AMD
KBTL 222042Z 2221/2318 22012G22KT P6SM BKN040
     FM222145 22015G25KT P6SM VCTS BKN040CB
     FM230600 21013KT 5SM -SHRA BR VCTS OVC035CB
     FM230800 29008KT P6SM OVC025
     FM231500 31009KT P6SM SKC=

USA.gov is the U.S. government's official web portal to all federal, state and local government web resources and services.